createdAt,value
2018-12-19T00:00:40.236Z,84.06
2018-12-19T00:01:40.235Z,83.75
2018-12-19T00:02:40.199Z,83.75
2018-12-19T00:03:40.195Z,83.86
2018-12-19T00:04:40.195Z,83.44
2018-12-19T00:05:40.162Z,83.44
2018-12-19T00:06:40.155Z,83.65
2018-12-19T00:07:40.172Z,84.17
2018-12-19T00:08:40.131Z,83.96
2018-12-19T00:09:40.143Z,83.54
2018-12-19T00:10:40.128Z,83.65
2018-12-19T00:11:40.137Z,83.54
2018-12-19T00:12:40.082Z,83.65
2018-12-19T00:13:40.076Z,83.44
2018-12-19T00:14:40.066Z,83.65
2018-12-19T00:15:40.056Z,83.54
2018-12-19T00:16:40.141Z,83.34
2018-12-19T00:17:40.066Z,83.13
2018-12-19T00:18:40.026Z,83.34
2018-12-19T00:19:40.014Z,82.99
2018-12-19T00:20:40.007Z,82.92
2018-12-19T00:21:39.995Z,83.09
2018-12-19T00:22:39.997Z,83.23
2018-12-19T00:23:40.026Z,82.99
2018-12-19T00:24:40.050Z,83.34
2018-12-19T00:25:40.003Z,83.13
2018-12-19T00:26:39.935Z,82.92
2018-12-19T00:27:39.941Z,83.03
2018-12-19T00:28:39.916Z,83.13
2018-12-19T00:29:39.907Z,83.03
2018-12-19T00:30:39.884Z,82.71
2018-12-19T00:31:40.009Z,82.92
2018-12-19T00:32:39.902Z,82.82
2018-12-19T00:33:39.883Z,83.03
2018-12-19T00:34:39.875Z,82.82
2018-12-19T00:35:39.832Z,82.61
2018-12-19T00:36:39.817Z,82.51
2018-12-19T00:37:39.845Z,82.51
2018-12-19T00:38:39.835Z,82.82
2018-12-19T00:39:39.802Z,82.71
2018-12-19T00:40:39.777Z,82.61
2018-12-19T00:41:39.771Z,83.23
2018-12-19T00:42:39.784Z,83.34
2018-12-19T00:43:39.761Z,83.03
2018-12-19T00:44:39.765Z,83.23
2018-12-19T00:45:39.742Z,82.86
2018-12-19T00:46:39.725Z,82.96
2018-12-19T00:47:39.728Z,82.96
2018-12-19T00:48:40.021Z,83.13
2018-12-19T00:49:39.732Z,82.92
2018-12-19T00:50:39.676Z,83.06
2018-12-19T00:51:39.692Z,83.06
2018-12-19T00:52:39.644Z,83.03
2018-12-19T00:53:39.648Z,83.48
2018-12-19T00:54:39.621Z,83.80
2018-12-19T00:55:39.599Z,84.31
2018-12-19T00:56:39.598Z,83.06
2018-12-19T00:57:39.658Z,83.58
2018-12-19T00:58:39.611Z,83.69
2018-12-19T00:59:39.578Z,83.48
2018-12-19T01:00:39.562Z,83.80
2018-12-19T01:01:39.560Z,84.21
2018-12-19T01:02:39.558Z,84.31
2018-12-19T01:03:39.576Z,84.31
2018-12-19T01:04:39.547Z,83.90
2018-12-19T01:05:39.506Z,84.11
2018-12-19T01:06:39.558Z,84.52
2018-12-19T01:07:39.476Z,84.31
2018-12-19T01:08:39.495Z,84.21
2018-12-19T01:09:39.464Z,84.11
2018-12-19T01:10:39.457Z,84.21
2018-12-19T01:11:39.433Z,84.21
2018-12-19T01:12:39.421Z,84.42
2018-12-19T01:13:39.472Z,84.31
2018-12-19T01:14:39.430Z,84.73
2018-12-19T01:15:39.387Z,85.14
2018-12-19T01:16:39.389Z,84.63
2018-12-19T01:17:39.369Z,84.63
2018-12-19T01:18:39.361Z,84.73
2018-12-19T01:19:39.389Z,85.25
2018-12-19T01:20:39.337Z,84.94
2018-12-19T01:21:39.333Z,85.14
2018-12-19T01:22:39.317Z,84.52
2018-12-19T01:23:39.306Z,84.42
2018-12-19T01:24:39.322Z,84.63
2018-12-19T01:25:39.299Z,84.94
2018-12-19T01:26:39.279Z,85.56
2018-12-19T01:27:39.270Z,85.25
2018-12-19T01:28:39.247Z,84.69
2018-12-19T01:29:39.316Z,85.25
2018-12-19T01:30:39.240Z,84.63
2018-12-19T01:31:39.224Z,84.80
2018-12-19T01:32:39.206Z,85.14
2018-12-19T01:33:39.196Z,85.25
2018-12-19T01:34:39.182Z,85.00
2018-12-19T01:35:39.232Z,84.63
2018-12-19T01:36:39.179Z,85.11
2018-12-19T01:37:39.179Z,84.69
2018-12-19T01:38:39.145Z,84.69
2018-12-19T01:39:39.133Z,84.83
2018-12-19T01:40:39.140Z,84.73
2018-12-19T01:41:39.106Z,85.14
2018-12-19T01:42:39.204Z,85.14
2018-12-19T01:43:39.093Z,84.59
2018-12-19T01:44:39.126Z,84.38
2018-12-19T01:45:39.082Z,84.48
2018-12-19T01:46:39.044Z,83.65
2018-12-19T01:47:39.033Z,84.00
2018-12-19T01:48:39.039Z,84.17
2018-12-19T01:49:39.043Z,83.48
2018-12-19T01:50:39.139Z,84.17
2018-12-19T01:51:38.995Z,84.17
2018-12-19T01:52:39.003Z,84.31
2018-12-19T01:53:38.978Z,83.96
2018-12-19T01:54:38.959Z,84.06
2018-12-19T01:55:38.976Z,84.21
2018-12-19T01:56:38.948Z,83.90
2018-12-19T01:57:38.933Z,83.69
2018-12-19T01:58:38.915Z,83.69
2018-12-19T01:59:38.914Z,83.80
2018-12-19T02:00:38.921Z,84.11
2018-12-19T02:01:38.898Z,84.52
2018-12-19T02:02:38.886Z,84.83
2018-12-19T02:03:38.862Z,84.63
2018-12-19T02:04:38.849Z,85.04
2018-12-19T02:05:38.859Z,84.94
2018-12-19T02:06:38.857Z,84.63
2018-12-19T02:07:38.854Z,84.42
2018-12-19T02:08:38.800Z,84.21
2018-12-19T02:09:38.794Z,85.04
2018-12-19T02:10:38.786Z,84.21
2018-12-19T02:11:38.795Z,84.63
2018-12-19T02:12:38.785Z,84.21
2018-12-19T02:13:38.755Z,84.06
2018-12-19T02:14:38.744Z,84.21
2018-12-19T02:15:38.732Z,84.42
2018-12-19T02:16:38.736Z,84.21
2018-12-19T02:17:38.700Z,83.90
2018-12-19T02:18:38.695Z,84.42
2018-12-19T02:19:38.699Z,84.11
2018-12-19T02:20:38.683Z,84.00
2018-12-19T02:21:38.692Z,84.21
2018-12-19T02:22:38.649Z,84.42
2018-12-19T02:23:38.647Z,84.63
2018-12-19T02:24:38.634Z,83.06
2018-12-19T02:25:38.626Z,83.48
2018-12-19T02:26:38.643Z,83.27
2018-12-19T02:27:38.643Z,84.52
2018-12-19T02:28:38.587Z,83.48
2018-12-19T02:29:38.577Z,83.58
2018-12-19T02:30:38.564Z,82.96
2018-12-19T02:31:38.558Z,83.80
2018-12-19T02:32:38.579Z,83.17
2018-12-19T02:33:38.531Z,83.58
2018-12-19T02:34:38.540Z,83.06
2018-12-19T02:35:38.527Z,83.44
2018-12-19T02:36:38.504Z,83.23
2018-12-19T02:37:38.503Z,83.17
2018-12-19T02:38:38.474Z,83.80
2018-12-19T02:39:38.458Z,83.27
2018-12-19T02:40:38.466Z,82.71
2018-12-19T02:41:38.434Z,82.92
2018-12-19T02:42:38.441Z,82.92
2018-12-19T02:43:38.452Z,82.96
2018-12-19T02:44:38.417Z,83.06
2018-12-19T02:45:38.404Z,83.23
2018-12-19T02:46:38.395Z,83.54
2018-12-19T02:47:38.402Z,83.06
2018-12-19T02:48:38.363Z,83.03
2018-12-19T02:49:38.370Z,83.23
2018-12-19T02:50:38.360Z,83.17
2018-12-19T02:51:38.335Z,83.54
2018-12-19T02:52:38.335Z,83.44
2018-12-19T02:53:38.313Z,83.75
2018-12-19T02:54:38.380Z,83.23
2018-12-19T02:55:38.290Z,82.92
2018-12-19T02:56:38.284Z,82.61
2018-12-19T02:57:38.312Z,82.92
2018-12-19T02:58:38.258Z,82.71
2018-12-19T02:59:38.242Z,82.30
2018-12-19T03:00:38.238Z,82.51
2018-12-19T03:01:38.244Z,82.61
2018-12-19T03:02:38.223Z,82.51
2018-12-19T03:03:38.207Z,82.82
2018-12-19T03:04:38.194Z,82.71
2018-12-19T03:05:38.180Z,82.51
2018-12-19T03:06:38.179Z,82.20
2018-12-19T03:07:38.212Z,81.67
2018-12-19T03:08:38.201Z,82.09
2018-12-19T03:09:42.957Z,82.20
2018-12-19T03:10:39.119Z,81.95
2018-12-19T03:11:38.131Z,82.71
2018-12-19T03:12:38.119Z,83.09
2018-12-19T03:13:38.110Z,83.03
2018-12-19T03:14:38.081Z,82.46
2018-12-19T03:15:38.060Z,82.20
2018-12-19T03:16:38.052Z,81.98
2018-12-19T03:17:38.051Z,82.15
2018-12-19T03:18:38.058Z,82.78
2018-12-19T03:19:38.043Z,82.82
2018-12-19T03:20:38.004Z,82.82
2018-12-19T03:21:38.000Z,82.68
2018-12-19T03:22:37.984Z,82.30
2018-12-19T03:23:37.995Z,82.36
2018-12-19T03:24:37.987Z,82.15
2018-12-19T03:25:37.967Z,82.20
2018-12-19T03:26:37.959Z,82.30
2018-12-19T03:27:37.932Z,82.40
2018-12-19T03:28:37.956Z,82.68
2018-12-19T03:29:37.921Z,83.20
2018-12-19T03:30:38.003Z,82.89
2018-12-19T03:31:37.922Z,82.30
2018-12-19T03:32:37.897Z,82.36
2018-12-19T03:33:37.888Z,82.36
2018-12-19T03:34:37.885Z,82.46
2018-12-19T03:35:37.872Z,82.46
2018-12-19T03:36:37.843Z,82.78
2018-12-19T03:37:37.852Z,82.78
2018-12-19T03:38:37.824Z,82.15
2018-12-19T03:39:37.836Z,81.84
2018-12-19T03:40:37.807Z,81.95
2018-12-19T03:41:37.788Z,81.95
2018-12-19T03:42:37.765Z,82.36
2018-12-19T03:43:37.760Z,81.74
2018-12-19T03:44:37.788Z,81.63
2018-12-19T03:45:37.744Z,81.84
2018-12-19T03:46:37.739Z,81.84
2018-12-19T03:47:37.733Z,82.26
2018-12-19T03:48:37.718Z,82.57
2018-12-19T03:49:37.722Z,82.78
2018-12-19T03:50:37.696Z,82.57
2018-12-19T03:51:37.673Z,82.51
2018-12-19T03:52:37.682Z,82.36
2018-12-19T03:53:37.643Z,82.36
2018-12-19T03:54:37.648Z,82.36
2018-12-19T03:55:37.681Z,82.05
2018-12-19T03:56:37.613Z,82.46
2018-12-19T03:57:37.629Z,82.92
2018-12-19T03:58:37.591Z,82.20
2018-12-19T03:59:37.609Z,82.36
2018-12-19T04:00:37.569Z,82.15
2018-12-19T04:01:37.634Z,81.77
2018-12-19T04:02:37.559Z,82.20
2018-12-19T04:03:37.544Z,82.78
2018-12-19T04:04:37.553Z,82.30
2018-12-19T04:05:37.546Z,82.51
2018-12-19T04:06:37.530Z,82.99
2018-12-19T04:07:37.542Z,83.03
2018-12-19T04:08:37.503Z,82.92
2018-12-19T04:09:37.500Z,82.71
2018-12-19T04:10:37.460Z,83.23
2018-12-19T04:11:37.455Z,82.71
2018-12-19T04:12:37.452Z,83.23
2018-12-19T04:13:37.448Z,82.71
2018-12-19T04:14:37.455Z,82.82
2018-12-19T04:15:37.429Z,82.92
2018-12-19T04:16:37.397Z,83.03
2018-12-19T04:17:37.389Z,82.92
2018-12-19T04:18:37.382Z,83.13
2018-12-19T04:19:37.372Z,82.92
2018-12-19T04:20:37.406Z,82.92
2018-12-19T04:21:37.345Z,83.13
2018-12-19T04:22:37.330Z,83.03
2018-12-19T04:23:37.320Z,82.51
2018-12-19T04:24:37.309Z,83.23
2018-12-19T04:25:37.302Z,83.03
2018-12-19T04:26:37.310Z,82.40
2018-12-19T04:27:37.273Z,82.51
2018-12-19T04:28:37.283Z,82.26
2018-12-19T04:29:37.258Z,82.61
2018-12-19T04:30:37.243Z,82.51
2018-12-19T04:31:37.252Z,82.61
2018-12-19T04:32:37.226Z,82.20
2018-12-19T04:33:37.210Z,82.30
2018-12-19T04:34:37.251Z,83.13
2018-12-19T04:35:37.195Z,83.03
2018-12-19T04:36:37.216Z,83.03
2018-12-19T04:37:37.174Z,82.71
2018-12-19T04:38:37.159Z,81.98
2018-12-19T04:39:37.156Z,81.88
2018-12-19T04:40:37.136Z,81.95
2018-12-19T04:41:37.154Z,82.20
2018-12-19T04:42:37.110Z,82.30
2018-12-19T04:43:37.149Z,82.15
2018-12-19T04:44:37.127Z,82.30
2018-12-19T04:45:37.126Z,81.15
2018-12-19T04:46:37.112Z,81.57
2018-12-19T04:47:37.080Z,81.46
2018-12-19T04:48:37.053Z,81.67
2018-12-19T04:49:37.054Z,81.77
2018-12-19T04:50:37.025Z,82.30
2018-12-19T04:51:37.018Z,81.67
2018-12-19T04:52:37.029Z,82.09
2018-12-19T04:53:37.020Z,81.77
2018-12-19T04:54:37.015Z,81.77
2018-12-19T04:55:37.009Z,81.88
2018-12-19T04:56:36.998Z,82.20
2018-12-19T04:57:36.982Z,82.09
2018-12-19T04:58:37.924Z,82.71
2018-12-19T04:59:36.935Z,82.30
2018-12-19T05:00:36.931Z,82.20
2018-12-19T05:01:36.957Z,82.05
2018-12-19T05:02:36.927Z,82.20
2018-12-19T05:03:36.905Z,82.20
2018-12-19T05:04:36.881Z,82.20
2018-12-19T05:05:36.903Z,82.09
2018-12-19T05:06:36.884Z,82.30
2018-12-19T05:07:36.906Z,82.51
2018-12-19T05:08:36.839Z,82.51
2018-12-19T05:09:36.844Z,82.61
2018-12-19T05:10:36.816Z,82.20
2018-12-19T05:11:36.799Z,81.88
2018-12-19T05:12:36.801Z,81.98
2018-12-19T05:13:36.818Z,82.09
2018-12-19T05:14:36.789Z,82.51
2018-12-19T05:15:36.757Z,82.30
2018-12-19T05:16:36.744Z,81.98
2018-12-19T05:17:36.757Z,82.30
2018-12-19T05:18:36.742Z,82.20
2018-12-19T05:19:36.729Z,82.78
2018-12-19T05:20:36.711Z,82.05
2018-12-19T05:21:36.696Z,82.61
2018-12-19T05:22:36.689Z,82.26
2018-12-19T05:23:36.690Z,82.15
2018-12-19T05:24:36.657Z,81.95
2018-12-19T05:25:36.648Z,82.57
2018-12-19T05:26:36.641Z,82.68
2018-12-19T05:27:36.633Z,83.40
2018-12-19T05:28:36.659Z,83.30
2018-12-19T05:29:36.599Z,84.23
2018-12-19T05:30:36.597Z,84.86
2018-12-19T05:31:36.586Z,84.55
2018-12-19T05:32:36.571Z,84.65
2018-12-19T05:33:36.580Z,85.06
2018-12-19T05:34:36.561Z,84.44
2018-12-19T05:35:36.557Z,85.06
2018-12-19T05:36:36.528Z,85.38
2018-12-19T05:37:36.514Z,84.59
2018-12-19T05:38:36.519Z,84.75
2018-12-19T05:39:36.515Z,85.59
2018-12-19T05:40:36.503Z,84.65
2018-12-19T05:41:36.633Z,86.32
2018-12-19T05:42:36.463Z,86.00
2018-12-19T05:43:36.481Z,87.15
2018-12-19T05:44:36.439Z,87.15
2018-12-19T05:45:36.432Z,88.09
2018-12-19T05:46:36.418Z,88.50
2018-12-19T05:47:36.405Z,88.81
2018-12-19T05:48:36.415Z,88.81
2018-12-19T05:49:36.380Z,88.60
2018-12-19T05:50:36.402Z,88.71
2018-12-19T05:51:36.375Z,88.75
2018-12-19T05:52:36.357Z,88.64
2018-12-19T05:53:36.338Z,88.96
2018-12-19T05:54:36.330Z,89.54
2018-12-19T05:55:36.350Z,88.71
2018-12-19T05:56:36.306Z,88.85
2018-12-19T05:57:36.297Z,89.06
2018-12-19T05:58:36.298Z,89.37
2018-12-19T05:59:36.277Z,89.89
2018-12-19T06:00:36.291Z,89.79
2018-12-19T06:01:36.250Z,90.10
2018-12-19T06:02:36.240Z,89.37
2018-12-19T06:03:36.238Z,89.37
2018-12-19T06:04:36.217Z,89.17
2018-12-19T06:05:36.239Z,90.00
2018-12-19T06:06:36.201Z,90.41
2018-12-19T06:07:36.190Z,90.00
2018-12-19T06:08:36.177Z,89.43
2018-12-19T06:09:36.183Z,90.10
2018-12-19T06:10:36.193Z,90.83
2018-12-19T06:11:36.150Z,90.31
2018-12-19T06:12:36.134Z,90.00
2018-12-19T06:13:36.145Z,90.20
2018-12-19T06:14:36.114Z,89.58
2018-12-19T06:15:36.126Z,89.85
2018-12-19T06:16:36.138Z,89.69
2018-12-19T06:17:36.105Z,89.58
2018-12-19T06:18:36.068Z,90.10
2018-12-19T06:19:36.060Z,89.89
2018-12-19T06:20:36.075Z,89.27
2018-12-19T06:21:36.050Z,89.79
2018-12-19T06:22:36.037Z,89.95
2018-12-19T06:23:36.019Z,89.85
2018-12-19T06:24:36.008Z,89.85
2018-12-19T06:25:36.089Z,90.41
2018-12-19T06:26:36.004Z,89.95
2018-12-19T06:27:35.973Z,90.00
2018-12-19T06:28:35.990Z,89.69
2018-12-19T06:29:35.946Z,90.31
2018-12-19T06:30:35.952Z,89.79
2018-12-19T06:31:35.946Z,89.79
2018-12-19T06:32:35.926Z,90.31
2018-12-19T06:33:35.907Z,90.58
2018-12-19T06:34:35.898Z,90.37
2018-12-19T06:35:35.880Z,90.20
2018-12-19T06:36:35.919Z,90.41
2018-12-19T06:37:35.899Z,90.93
2018-12-19T06:38:35.851Z,90.62
2018-12-19T06:39:35.839Z,90.31
2018-12-19T06:40:35.834Z,90.26
2018-12-19T06:41:35.831Z,91.10
2018-12-19T06:42:35.848Z,91.56
2018-12-19T06:43:35.798Z,91.31
2018-12-19T06:44:35.793Z,91.00
2018-12-19T06:45:35.777Z,91.52
2018-12-19T06:46:35.781Z,91.52
2018-12-19T06:47:35.786Z,91.52
2018-12-19T06:48:35.751Z,91.31
2018-12-19T06:49:35.738Z,91.20
2018-12-19T06:50:35.726Z,91.20
2018-12-19T06:51:35.714Z,91.31
2018-12-19T06:52:35.753Z,90.69
2018-12-19T06:53:35.702Z,91.20
2018-12-19T06:54:35.682Z,91.20
2018-12-19T06:55:35.666Z,91.20
2018-12-19T06:56:35.655Z,91.31
2018-12-19T06:57:35.663Z,91.20
2018-12-19T06:58:35.643Z,90.89
2018-12-19T06:59:35.650Z,90.26
2018-12-19T07:00:35.615Z,91.10
2018-12-19T07:01:35.636Z,91.62
2018-12-19T07:02:35.610Z,91.00
2018-12-19T07:03:35.596Z,90.62
2018-12-19T07:04:35.574Z,90.26
2018-12-19T07:05:35.562Z,91.20
2018-12-19T07:06:35.581Z,91.62
2018-12-19T07:07:35.583Z,91.52
2018-12-19T07:08:35.537Z,90.89
2018-12-19T07:09:35.519Z,91.41
2018-12-19T07:10:39.074Z,91.83
2018-12-19T07:11:35.498Z,91.62
2018-12-19T07:12:35.520Z,91.00
2018-12-19T07:13:35.506Z,91.20
2018-12-19T07:14:35.462Z,91.20
2018-12-19T07:15:35.454Z,91.20
2018-12-19T07:16:35.478Z,90.89
2018-12-19T07:17:35.449Z,91.10
2018-12-19T07:18:35.450Z,91.52
2018-12-19T07:19:35.449Z,91.62
2018-12-19T07:20:35.402Z,91.52
2018-12-19T07:21:35.395Z,91.62
2018-12-19T07:22:35.388Z,91.83
2018-12-19T07:23:35.417Z,91.99
2018-12-19T07:24:35.366Z,92.14
2018-12-19T07:25:35.341Z,91.62
2018-12-19T07:26:35.338Z,91.41
2018-12-19T07:27:35.347Z,91.93
2018-12-19T07:28:35.353Z,91.99
2018-12-19T07:29:35.315Z,92.14
2018-12-19T07:30:35.286Z,92.24
2018-12-19T07:31:35.294Z,92.24
2018-12-19T07:32:35.290Z,92.20
2018-12-19T07:33:35.278Z,92.30
2018-12-19T07:34:35.266Z,92.76
2018-12-19T07:35:35.235Z,92.35
2018-12-19T07:36:35.224Z,91.52
2018-12-19T07:37:35.225Z,91.83
2018-12-19T07:38:35.213Z,92.55
2018-12-19T07:39:35.224Z,92.72
2018-12-19T07:40:35.201Z,92.35
2018-12-19T07:41:35.181Z,92.66
2018-12-19T07:42:35.267Z,92.51
2018-12-19T07:43:35.206Z,92.24
2018-12-19T07:44:35.188Z,92.45
2018-12-19T07:45:35.137Z,92.20
2018-12-19T07:46:35.126Z,92.51
2018-12-19T07:47:35.119Z,92.82
2018-12-19T07:48:35.101Z,92.93
2018-12-19T07:49:35.106Z,92.61
2018-12-19T07:50:35.074Z,92.61
2018-12-19T07:51:35.069Z,92.10
2018-12-19T07:52:35.069Z,91.78
2018-12-19T07:53:35.039Z,92.41
2018-12-19T07:54:35.057Z,91.99
2018-12-19T07:55:35.015Z,91.78
2018-12-19T07:56:35.008Z,92.10
2018-12-19T07:57:35.008Z,91.78
2018-12-19T07:58:34.990Z,92.72
2018-12-19T07:59:34.989Z,92.72
2018-12-19T08:00:34.975Z,92.35
2018-12-19T08:01:34.950Z,92.41
2018-12-19T08:02:34.947Z,92.30
2018-12-19T08:03:34.949Z,92.10
2018-12-19T08:04:34.944Z,92.20
2018-12-19T08:05:34.910Z,92.51
2018-12-19T08:06:34.893Z,92.72
2018-12-19T08:07:34.885Z,92.61
2018-12-19T08:08:34.877Z,92.26
2018-12-19T08:09:34.890Z,92.05
2018-12-19T08:10:34.869Z,91.68
2018-12-19T08:11:34.845Z,91.68
2018-12-19T08:12:36.199Z,92.05
2018-12-19T08:13:34.818Z,91.95
2018-12-19T08:14:34.826Z,92.05
2018-12-19T08:15:34.821Z,93.20
2018-12-19T08:16:34.797Z,92.47
2018-12-19T08:17:34.782Z,92.47
2018-12-19T08:18:34.773Z,92.78
2018-12-19T08:19:34.760Z,92.36
2018-12-19T08:20:34.765Z,92.47
2018-12-19T08:21:34.733Z,92.05
2018-12-19T08:22:34.737Z,92.05
2018-12-19T08:23:34.713Z,92.16
2018-12-19T08:24:34.708Z,92.99
2018-12-19T08:25:34.710Z,92.78
2018-12-19T08:26:34.682Z,92.68
2018-12-19T08:27:34.669Z,92.26
2018-12-19T08:28:34.659Z,92.05
2018-12-19T08:29:34.647Z,92.26
2018-12-19T08:30:34.662Z,92.57
2018-12-19T08:31:34.653Z,92.99
2018-12-19T08:32:34.627Z,93.72
2018-12-19T08:33:34.602Z,93.41
2018-12-19T08:34:34.664Z,92.78
2018-12-19T08:35:34.610Z,92.47
2018-12-19T08:36:34.603Z,92.78
2018-12-19T08:37:34.562Z,92.78
2018-12-19T08:38:34.555Z,92.57
2018-12-19T08:39:34.549Z,91.95
2018-12-19T08:40:34.533Z,92.36
2018-12-19T08:41:34.525Z,92.47
2018-12-19T08:42:34.521Z,93.26
2018-12-19T08:43:34.506Z,93.20
2018-12-19T08:44:34.493Z,92.94
2018-12-19T08:45:34.475Z,92.32
2018-12-19T08:46:34.508Z,92.63
2018-12-19T08:47:34.456Z,92.22
2018-12-19T08:48:34.444Z,92.74
2018-12-19T08:49:34.429Z,92.84
2018-12-19T08:50:34.420Z,93.05
2018-12-19T08:51:34.439Z,92.63
2018-12-19T08:52:34.420Z,93.05
2018-12-19T08:53:34.393Z,93.47
2018-12-19T08:54:34.382Z,93.37
2018-12-19T08:55:34.401Z,93.26
2018-12-19T08:56:34.366Z,93.16
2018-12-19T08:57:34.380Z,93.57
2018-12-19T08:58:34.343Z,92.94
2018-12-19T08:59:34.324Z,92.94
2018-12-19T09:00:34.318Z,92.74
2018-12-19T09:01:34.325Z,91.49
2018-12-19T09:02:34.311Z,92.22
2018-12-19T09:03:34.279Z,90.25
2018-12-19T09:04:34.295Z,90.56
2018-12-19T09:05:34.255Z,91.08
2018-12-19T09:06:34.255Z,91.49
2018-12-19T09:07:34.262Z,88.59
2018-12-19T09:08:34.229Z,88.69
2018-12-19T09:09:34.232Z,89.73
2018-12-19T09:10:34.210Z,89.48
2018-12-19T09:11:34.209Z,89.58
2018-12-19T09:12:34.210Z,89.00
2018-12-19T09:13:34.180Z,89.00
2018-12-19T09:14:34.162Z,88.65
2018-12-19T09:15:34.153Z,88.65
2018-12-19T09:16:34.146Z,89.00
2018-12-19T09:17:34.161Z,88.34
2018-12-19T09:18:34.122Z,88.44
2018-12-19T09:19:34.115Z,87.45
2018-12-19T09:20:34.096Z,88.17
2018-12-19T09:21:34.084Z,89.37
2018-12-19T09:22:34.070Z,88.79
2018-12-19T09:23:34.094Z,89.17
2018-12-19T09:24:34.054Z,88.65
2018-12-19T09:25:34.038Z,89.06
2018-12-19T09:26:34.029Z,89.06
2018-12-19T09:27:34.016Z,89.37
2018-12-19T09:28:34.022Z,88.54
2018-12-19T09:29:34.007Z,87.92
2018-12-19T09:30:34.046Z,86.99
2018-12-19T09:31:34.007Z,88.02
2018-12-19T09:32:33.984Z,87.09
2018-12-19T09:33:33.988Z,86.99
2018-12-19T09:34:33.945Z,87.30
2018-12-19T09:35:33.930Z,88.44
2018-12-19T09:36:33.917Z,90.00
2018-12-19T09:37:33.911Z,90.00
2018-12-19T09:38:33.913Z,90.31
2018-12-19T09:39:33.885Z,90.52
2018-12-19T09:40:33.892Z,90.72
2018-12-19T09:41:33.865Z,90.20
2018-12-19T09:42:33.849Z,90.37
2018-12-19T09:43:33.881Z,90.58
2018-12-19T09:44:33.837Z,90.69
2018-12-19T09:45:33.817Z,90.48
2018-12-19T09:46:33.836Z,90.00
2018-12-19T09:47:33.909Z,90.10
2018-12-19T09:48:33.788Z,90.52
2018-12-19T09:49:33.824Z,91.14
2018-12-19T09:50:33.811Z,91.31
2018-12-19T09:51:33.761Z,89.17
2018-12-19T09:52:33.751Z,89.06
2018-12-19T09:53:33.769Z,89.65
2018-12-19T09:54:33.722Z,89.89
2018-12-19T09:55:33.713Z,90.37
2018-12-19T09:56:33.725Z,91.00
2018-12-19T09:57:33.686Z,91.83
2018-12-19T09:58:33.678Z,91.52
2018-12-19T09:59:33.686Z,91.00
2018-12-19T10:00:33.661Z,90.37
2018-12-19T10:01:33.644Z,90.37
2018-12-19T10:02:33.633Z,89.96
2018-12-19T10:03:33.628Z,90.17
2018-12-19T10:04:33.638Z,89.54
2018-12-19T10:05:33.622Z,89.44
2018-12-19T10:06:33.597Z,89.81
2018-12-19T10:07:33.587Z,89.92
2018-12-19T10:08:33.577Z,89.92
2018-12-19T10:09:33.574Z,89.50
2018-12-19T10:10:33.549Z,89.09
2018-12-19T10:11:33.540Z,89.81
2018-12-19T10:12:33.534Z,88.98
2018-12-19T10:13:33.559Z,88.46
2018-12-19T10:14:33.535Z,88.15
2018-12-19T10:15:33.495Z,88.36
2018-12-19T10:16:33.488Z,88.57
2018-12-19T10:17:33.472Z,88.46
2018-12-19T10:18:33.456Z,88.46
2018-12-19T10:19:33.469Z,88.88
2018-12-19T10:20:33.441Z,88.88
2018-12-19T10:21:33.424Z,88.36
2018-12-19T10:22:33.419Z,88.26
2018-12-19T10:23:33.415Z,87.59
2018-12-19T10:24:33.392Z,87.12
2018-12-19T10:25:33.400Z,87.32
2018-12-19T10:26:33.368Z,88.36
2018-12-19T10:27:33.360Z,87.43
2018-12-19T10:28:33.362Z,87.28
2018-12-19T10:29:33.335Z,87.28
2018-12-19T10:30:33.345Z,87.07
2018-12-19T10:31:33.340Z,88.36
2018-12-19T10:32:33.308Z,88.73
2018-12-19T10:33:33.297Z,88.53
2018-12-19T10:34:33.287Z,88.21
2018-12-19T10:35:33.318Z,87.59
2018-12-19T10:36:33.273Z,87.07
2018-12-19T10:37:33.269Z,87.59
2018-12-19T10:38:33.264Z,86.66
2018-12-19T10:39:33.249Z,86.87
2018-12-19T10:40:33.240Z,86.66
2018-12-19T10:41:33.218Z,87.07
2018-12-19T10:42:33.199Z,86.45
2018-12-19T10:43:33.205Z,86.76
2018-12-19T10:44:33.180Z,86.10
2018-12-19T10:45:33.184Z,86.52
2018-12-19T10:46:33.156Z,86.31
2018-12-19T10:47:33.178Z,86.62
2018-12-19T10:48:33.151Z,85.89
2018-12-19T10:49:33.141Z,86.66
2018-12-19T10:50:33.106Z,85.83
2018-12-19T10:51:33.129Z,85.52
2018-12-19T10:52:33.096Z,85.73
2018-12-19T10:53:33.865Z,86.55
2018-12-19T10:54:33.077Z,85.83
2018-12-19T10:55:33.064Z,85.73
2018-12-19T10:56:33.064Z,85.27
2018-12-19T10:57:33.056Z,84.69
2018-12-19T10:58:33.017Z,84.55
2018-12-19T10:59:33.016Z,85.00
2018-12-19T11:00:33.004Z,86.35
2018-12-19T11:01:33.013Z,86.41
2018-12-19T11:02:32.989Z,86.83
2018-12-19T11:03:32.961Z,86.83
2018-12-19T11:04:32.955Z,86.21
2018-12-19T11:05:32.951Z,86.31
2018-12-19T11:06:32.948Z,86.41
2018-12-19T11:07:32.952Z,85.58
2018-12-19T11:08:32.913Z,86.62
2018-12-19T11:09:32.903Z,86.41
2018-12-19T11:10:32.887Z,85.48
2018-12-19T11:11:32.901Z,84.44
2018-12-19T11:12:32.875Z,82.86
2018-12-19T11:13:32.846Z,82.34
2018-12-19T11:14:32.837Z,82.54
2018-12-19T11:15:32.830Z,83.99
2018-12-19T11:16:32.863Z,83.06
2018-12-19T11:17:32.820Z,83.99
2018-12-19T11:18:32.792Z,83.06
2018-12-19T11:19:32.788Z,83.06
2018-12-19T11:20:32.787Z,84.09
2018-12-19T11:21:32.784Z,83.68
2018-12-19T11:22:32.756Z,83.16
2018-12-19T11:23:32.742Z,83.37
2018-12-19T11:24:32.726Z,83.58
2018-12-19T11:25:32.718Z,83.89
2018-12-19T11:26:32.701Z,84.72
2018-12-19T11:27:32.707Z,85.03
2018-12-19T11:28:32.697Z,84.72
2018-12-19T11:29:32.672Z,84.09
2018-12-19T11:30:32.700Z,84.20
2018-12-19T11:31:32.649Z,84.58
2018-12-19T11:32:32.632Z,82.75
2018-12-19T11:33:32.649Z,80.99
2018-12-19T11:34:32.618Z,81.92
2018-12-19T11:35:32.609Z,82.34
2018-12-19T11:36:32.588Z,82.40
2018-12-19T11:37:32.601Z,82.40
2018-12-19T11:38:32.562Z,81.30
2018-12-19T11:39:32.552Z,81.20
2018-12-19T11:40:32.542Z,83.37
2018-12-19T11:41:38.780Z,83.68
2018-12-19T11:42:33.561Z,83.16
2018-12-19T11:43:32.508Z,82.95
2018-12-19T11:44:32.538Z,82.65
2018-12-19T11:45:32.493Z,82.95
2018-12-19T11:46:32.474Z,83.12
2018-12-19T11:47:32.498Z,83.06
2018-12-19T11:48:32.459Z,83.58
2018-12-19T11:49:32.473Z,83.89
2018-12-19T11:50:32.435Z,82.44
2018-12-19T11:51:32.420Z,82.34
2018-12-19T11:52:32.414Z,82.86
2018-12-19T11:53:32.426Z,83.99
2018-12-19T11:54:32.434Z,83.16
2018-12-19T11:55:32.382Z,82.34
2018-12-19T11:56:32.371Z,83.06
2018-12-19T11:57:32.353Z,83.68
2018-12-19T11:58:32.400Z,83.26
2018-12-19T11:59:32.337Z,84.27
2018-12-19T12:00:32.365Z,82.75
2018-12-19T12:01:32.329Z,82.92
2018-12-19T12:02:32.299Z,84.72
2018-12-19T12:03:32.308Z,84.51
2018-12-19T12:04:32.284Z,84.72
2018-12-19T12:05:32.277Z,84.88
2018-12-19T12:06:32.254Z,85.19
2018-12-19T12:07:32.244Z,85.61
2018-12-19T12:08:32.236Z,85.61
2018-12-19T12:09:32.252Z,84.78
2018-12-19T12:10:32.229Z,84.58
2018-12-19T12:11:32.193Z,84.27
2018-12-19T12:12:32.201Z,84.16
2018-12-19T12:13:32.178Z,84.27
2018-12-19T12:14:32.182Z,84.09
2018-12-19T12:15:32.154Z,84.88
2018-12-19T12:16:32.145Z,84.27
2018-12-19T12:17:32.125Z,85.40
2018-12-19T12:18:32.124Z,84.27
2018-12-19T12:19:32.149Z,85.30
2018-12-19T12:20:32.118Z,85.61
2018-12-19T12:21:32.089Z,84.68
2018-12-19T12:22:32.083Z,84.58
2018-12-19T12:23:32.098Z,86.33
2018-12-19T12:24:32.050Z,85.71
2018-12-19T12:25:32.064Z,85.82
2018-12-19T12:26:32.056Z,85.82
2018-12-19T12:27:32.027Z,86.13
2018-12-19T12:28:32.037Z,86.02
2018-12-19T12:29:32.009Z,84.78
2018-12-19T12:30:32.005Z,84.88
2018-12-19T12:31:32.010Z,85.92
2018-12-19T12:32:31.963Z,86.33
2018-12-19T12:33:31.961Z,85.82
2018-12-19T12:34:31.947Z,85.92
2018-12-19T12:35:31.958Z,85.78
2018-12-19T12:36:31.964Z,84.78
2018-12-19T12:37:31.907Z,84.37
2018-12-19T12:38:34.188Z,84.78
2018-12-19T12:39:31.898Z,85.19
2018-12-19T12:40:31.914Z,84.88
2018-12-19T12:41:31.858Z,84.27
2018-12-19T12:42:31.906Z,84.58
2018-12-19T12:43:31.850Z,85.88
2018-12-19T12:44:31.840Z,85.19
2018-12-19T12:45:31.823Z,85.19
2018-12-19T12:46:31.845Z,85.88
2018-12-19T12:47:31.801Z,85.61
2018-12-19T12:48:31.792Z,84.33
2018-12-19T12:49:31.804Z,84.47
2018-12-19T12:50:31.786Z,84.64
2018-12-19T12:51:31.785Z,84.95
2018-12-19T12:52:31.769Z,84.53